Time;durP1;ratioP1;P1;durP2;ratioP2;P2;SDS_P1;SDS_P2;PMS_P1;PMS_P2;Temp;Humidity;BMP_temperature;BMP_pressure;BME280_temperature;BME280_humidity;BME280_pressure;Samples;Min_cycle;Max_cycle;Signal;HPM_P1;HPM_P2
2022/07/06 00:00:33;;;;;;;2.90;1.30;;;21.90;99.90;;;;;;5009064;28;20034;-74
2022/07/06 00:02:59;;;;;;;3.78;1.30;;;21.90;99.90;;;;;;5010319;28;20076;-74
2022/07/06 00:05:25;;;;;;;2.22;0.95;;;21.70;99.90;;;;;;5009989;28;20488;-74
2022/07/06 00:07:51;;;;;;;3.28;1.20;;;21.40;99.90;;;;;;5011015;28;20097;-75
2022/07/06 00:10:17;;;;;;;2.50;1.15;;;21.40;99.90;;;;;;5010393;28;20049;-74
2022/07/06 00:12:43;;;;;;;3.42;1.40;;;21.20;99.90;;;;;;5010399;28;20549;-74
2022/07/06 00:15:09;;;;;;;2.22;1.10;;;21.20;99.90;;;;;;5009860;28;20030;-74
2022/07/06 00:17:34;;;;;;;1.50;0.90;;;21.20;99.90;;;;;;5010757;28;20402;-74
2022/07/06 00:20:00;;;;;;;1.92;1.05;;;21.20;99.90;;;;;;5011742;28;20026;-74
2022/07/06 00:22:26;;;;;;;1.77;0.80;;;21.20;99.70;;;;;;5008287;28;20061;-74
2022/07/06 00:24:52;;;;;;;3.92;1.50;;;21.20;99.90;;;;;;5009496;28;20034;-74
2022/07/06 00:27:17;;;;;;;3.65;1.30;;;21.30;99.40;;;;;;5010251;28;20042;-74
2022/07/06 00:29:43;;;;;;;2.45;0.90;;;21.30;99.40;;;;;;5010833;28;20073;-74
2022/07/06 00:32:12;;;;;;;6.32;1.58;;;21.30;99.20;;;;;;5009288;28;20065;-74
2022/07/06 00:34:41;;;;;;;2.13;0.80;;;21.00;99.40;;;;;;5011475;28;20105;-74
2022/07/06 00:37:06;;;;;;;2.15;1.38;;;21.00;99.80;;;;;;5009846;28;20480;-74
2022/07/06 00:39:33;;;;;;;1.77;0.95;;;21.00;99.60;;;;;;5010033;28;20030;-74
2022/07/06 00:41:58;;;;;;;2.38;1.08;;;21.20;98.90;;;;;;5010485;28;20479;-74
2022/07/06 00:44:24;;;;;;;2.40;1.20;;;21.10;98.90;;;;;;5009978;28;20034;-75
2022/07/06 00:46:50;;;;;;;3.70;1.27;;;21.30;98.70;;;;;;5009526;28;20033;-74
2022/07/06 00:52:01;;;;;;;1.88;1.10;;;20.90;99.20;;;;;;5009789;28;20045;-74
2022/07/06 00:54:32;;;;;;;2.80;1.27;;;21.00;98.70;;;;;;5010309;28;20034;-74
2022/07/06 00:56:58;;;;;;;2.28;1.35;;;21.10;99.70;;;;;;5010470;28;20044;-74
2022/07/06 00:59:24;;;;;;;3.72;1.50;;;21.10;99.90;;;;;;5012690;28;20037;-74
2022/07/06 01:01:50;;;;;;;5.38;1.67;;;21.10;99.90;;;;;;5012863;28;20455;-74
2022/07/06 01:04:16;;;;;;;2.97;1.60;;;21.10;99.90;;;;;;5012568;28;20476;-74
2022/07/06 01:06:44;;;;;;;2.20;1.27;;;21.00;99.90;;;;;;5013521;28;20076;-74
2022/07/06 01:09:09;;;;;;;2.72;1.65;;;21.10;99.90;;;;;;5014359;28;20488;-74
2022/07/06 01:11:35;;;;;;;7.00;1.75;;;21.00;99.90;;;;;;5012011;28;20034;-74
2022/07/06 01:14:01;;;;;;;3.05;1.35;;;20.90;99.90;;;;;;5015074;28;20117;-74
2022/07/06 01:16:27;;;;;;;3.20;1.50;;;21.00;99.90;;;;;;5012690;28;20460;-74
2022/07/06 01:18:53;;;;;;;4.45;1.80;;;21.00;99.90;;;;;;5014112;28;20065;-74
2022/07/06 01:21:18;;;;;;;4.13;1.58;;;20.80;99.90;;;;;;5012947;28;20065;-74
2022/07/06 01:23:46;;;;;;;5.32;1.35;;;20.50;99.90;;;;;;5013942;28;20056;-74
2022/07/06 01:26:14;;;;;;;5.85;2.25;;;20.50;99.90;;;;;;5010085;28;20064;-74
2022/07/06 01:28:41;;;;;;;5.05;1.85;;;20.60;99.90;;;;;;5014278;28;20029;-74
2022/07/06 01:31:20;;;;;;;4.72;2.35;;;20.70;99.90;;;;;;5011119;28;20030;-74
2022/07/06 01:33:48;;;;;;;3.80;1.60;;;20.60;99.90;;;;;;5012988;28;20036;-74
2022/07/06 01:36:14;;;;;;;4.75;1.50;;;20.50;99.90;;;;;;5012112;28;20034;-74
2022/07/06 01:38:53;;;;;;;3.42;1.25;;;20.30;99.90;;;;;;5013717;28;20103;-74
2022/07/06 01:41:20;;;;;;;4.85;1.70;;;20.10;99.90;;;;;;5009682;28;20084;-74
2022/07/06 01:43:46;;;;;;;2.83;1.55;;;20.10;99.90;;;;;;5012218;28;20112;-74
2022/07/06 01:46:13;;;;;;;2.85;1.30;;;20.20;99.90;;;;;;5010188;28;20034;-74
2022/07/06 01:48:39;;;;;;;2.38;1.20;;;20.00;99.90;;;;;;5013927;28;20045;-74
2022/07/06 01:51:05;;;;;;;2.10;1.15;;;19.90;99.90;;;;;;5012682;28;20152;-75
2022/07/06 01:53:31;;;;;;;2.47;1.27;;;20.40;99.90;;;;;;5013002;28;20061;-74
2022/07/06 01:55:57;;;;;;;3.78;1.35;;;20.70;99.90;;;;;;5007479;28;20060;-74
2022/07/06 01:58:23;;;;;;;2.97;1.67;;;20.70;99.90;;;;;;5012442;28;20464;-75
2022/07/06 02:00:48;;;;;;;2.50;1.25;;;20.60;99.90;;;;;;5011311;28;20385;-74
2022/07/06 02:03:14;;;;;;;2.75;1.45;;;20.70;99.90;;;;;;5014298;28;20050;-74
2022/07/06 02:05:40;;;;;;;3.97;1.33;;;20.90;99.90;;;;;;5011902;28;20041;-74
2022/07/06 02:08:05;;;;;;;4.22;2.00;;;20.80;99.90;;;;;;5004760;28;20030;-74
2022/07/06 02:10:31;;;;;;;4.68;1.65;;;20.80;99.90;;;;;;5012599;28;20112;-74
2022/07/06 02:12:57;;;;;;;4.80;1.67;;;20.70;99.90;;;;;;5013954;28;20108;-74
2022/07/06 02:15:22;;;;;;;4.47;1.70;;;20.50;99.90;;;;;;5011737;28;20030;-74
2022/07/06 02:17:48;;;;;;;4.35;1.48;;;20.30;99.90;;;;;;5013818;28;20040;-74
2022/07/06 02:20:14;;;;;;;3.45;1.50;;;20.20;99.90;;;;;;5011059;28;20030;-74
2022/07/06 02:22:39;;;;;;;3.80;1.65;;;20.20;99.90;;;;;;5013200;28;20104;-74
2022/07/06 02:25:05;;;;;;;3.13;1.60;;;20.30;99.90;;;;;;5010875;28;20096;-74
2022/07/06 02:27:31;;;;;;;3.53;1.63;;;20.30;99.90;;;;;;5013061;28;20065;-74
2022/07/06 02:29:57;;;;;;;3.15;1.67;;;20.40;99.90;;;;;;5009076;28;20052;-74
2022/07/06 02:32:23;;;;;;;3.75;1.52;;;20.30;99.90;;;;;;5009596;28;20032;-73
2022/07/06 02:34:48;;;;;;;3.92;1.85;;;20.20;99.90;;;;;;5011778;28;20088;-74
2022/07/06 02:37:14;;;;;;;3.08;1.95;;;20.20;99.90;;;;;;5013161;28;20093;-74
2022/07/06 02:39:40;;;;;;;5.25;1.77;;;20.30;99.90;;;;;;5012086;28;20033;-74
2022/07/06 02:42:06;;;;;;;3.75;1.70;;;20.40;99.90;;;;;;5015717;28;20036;-74
2022/07/06 02:44:33;;;;;;;6.53;2.28;;;20.40;99.90;;;;;;5011553;28;20484;-74
2022/07/06 02:46:58;;;;;;;4.18;2.00;;;20.40;99.90;;;;;;5012692;28;20040;-74
2022/07/06 02:49:24;;;;;;;3.83;1.83;;;20.50;99.90;;;;;;5009754;28;20038;-74
2022/07/06 02:51:50;;;;;;;2.38;1.50;;;20.40;99.90;;;;;;5011794;28;20044;-74
2022/07/06 02:54:15;;;;;;;3.58;1.65;;;20.60;99.90;;;;;;5010727;28;20064;-74
2022/07/06 02:56:41;;;;;;;4.53;2.38;;;20.70;99.90;;;;;;5012804;28;20037;-74
2022/07/06 02:59:07;;;;;;;2.65;1.65;;;20.80;99.90;;;;;;5010488;28;20061;-74
2022/07/06 03:01:32;;;;;;;4.40;1.40;;;20.70;99.90;;;;;;5009265;28;20030;-72
2022/07/06 03:03:58;;;;;;;5.32;1.95;;;20.50;99.90;;;;;;5002608;28;20029;-73
2022/07/06 03:06:24;;;;;;;5.40;2.03;;;20.60;99.90;;;;;;5004578;28;20045;-73
2022/07/06 03:08:49;;;;;;;4.55;2.05;;;20.60;99.90;;;;;;5007766;28;20045;-73
2022/07/06 03:11:15;;;;;;;2.92;1.60;;;20.50;99.90;;;;;;5005391;28;20037;-73
2022/07/06 03:13:40;;;;;;;4.50;1.63;;;20.10;99.90;;;;;;5007948;28;20681;-73
2022/07/06 03:16:06;;;;;;;3.28;1.65;;;20.30;99.90;;;;;;5005342;28;20553;-73
2022/07/06 03:18:32;;;;;;;2.42;1.17;;;20.30;99.90;;;;;;5004579;28;20079;-73
2022/07/06 03:20:57;;;;;;;3.83;1.70;;;20.10;99.90;;;;;;5002100;28;20112;-73
2022/07/06 03:23:23;;;;;;;2.90;1.52;;;20.20;99.90;;;;;;5003118;28;20048;-73
2022/07/06 03:25:49;;;;;;;3.97;1.58;;;20.30;99.90;;;;;;5005290;28;20040;-72
2022/07/06 03:28:14;;;;;;;4.97;1.35;;;20.30;99.90;;;;;;5008107;28;20464;-73
2022/07/06 03:30:40;;;;;;;3.30;1.60;;;20.30;99.90;;;;;;5004171;28;20435;-72
2022/07/06 03:33:06;;;;;;;3.67;2.10;;;20.10;99.90;;;;;;5007713;28;20030;-72
2022/07/06 03:35:31;;;;;;;3.20;1.48;;;20.10;99.90;;;;;;5006530;28;20083;-73
2022/07/06 03:37:57;;;;;;;3.55;1.25;;;20.00;99.90;;;;;;5007905;28;20103;-73
2022/07/06 03:40:22;;;;;;;4.35;2.13;;;20.00;99.90;;;;;;5004904;28;20029;-73
2022/07/06 03:42:48;;;;;;;3.50;2.05;;;19.80;99.90;;;;;;5006147;28;20022;-73
2022/07/06 03:45:14;;;;;;;3.13;1.30;;;19.90;99.90;;;;;;5005557;28;20164;-73
2022/07/06 03:47:40;;;;;;;4.10;1.58;;;19.70;99.90;;;;;;5004804;28;20611;-72
2022/07/06 03:50:06;;;;;;;3.92;1.83;;;19.80;99.90;;;;;;5003662;28;20049;-73
2022/07/06 03:52:32;;;;;;;3.45;1.75;;;19.90;99.90;;;;;;5005248;28;20113;-73
2022/07/06 03:54:57;;;;;;;4.15;1.60;;;19.90;99.90;;;;;;5006656;28;20156;-73
2022/07/06 03:57:23;;;;;;;3.78;1.70;;;19.80;99.90;;;;;;5006916;28;20049;-73
2022/07/06 03:59:49;;;;;;;3.03;1.75;;;19.60;99.90;;;;;;5003369;28;20034;-73
2022/07/06 04:02:14;;;;;;;4.13;1.60;;;19.70;99.90;;;;;;5000681;28;20037;-72
2022/07/06 04:04:40;;;;;;;4.47;1.70;;;19.80;99.90;;;;;;5001541;28;20048;-73
2022/07/06 04:07:06;;;;;;;3.80;1.80;;;20.00;99.90;;;;;;5003906;28;20092;-73
2022/07/06 04:09:31;;;;;;;4.78;1.48;;;19.80;99.90;;;;;;5002368;28;20038;-73
2022/07/06 04:11:57;;;;;;;4.93;1.67;;;19.70;99.90;;;;;;5000642;28;20036;-72
2022/07/06 04:14:22;;;;;;;3.08;1.48;;;19.80;99.90;;;;;;5003095;28;20065;-73
2022/07/06 04:16:48;;;;;;;3.30;1.52;;;19.90;99.90;;;;;;5004205;28;20029;-73
2022/07/06 04:19:14;;;;;;;3.10;1.50;;;19.90;99.90;;;;;;5003821;28;20042;-72
2022/07/06 04:21:40;;;;;;;4.40;1.85;;;19.80;99.90;;;;;;4984594;28;20026;-73
2022/07/06 04:24:06;;;;;;;4.25;1.42;;;19.90;99.90;;;;;;5004144;28;20113;-72
2022/07/06 04:26:31;;;;;;;4.28;1.67;;;19.90;99.90;;;;;;5002170;28;20034;-72
2022/07/06 04:28:57;;;;;;;4.35;1.70;;;19.90;99.90;;;;;;5004101;28;20099;-73
2022/07/06 04:31:22;;;;;;;5.45;1.90;;;19.90;99.90;;;;;;5000687;28;20041;-72
2022/07/06 04:33:48;;;;;;;7.43;2.03;;;20.00;99.90;;;;;;5004724;28;20521;-72
2022/07/06 04:36:14;;;;;;;3.88;1.70;;;20.10;99.90;;;;;;5008381;28;20037;-73
2022/07/06 04:38:40;;;;;;;6.25;2.22;;;20.20;99.90;;;;;;5006169;28;20051;-72
2022/07/06 04:41:05;;;;;;;3.85;1.90;;;20.30;99.90;;;;;;5005034;28;20116;-73
2022/07/06 04:43:31;;;;;;;3.83;1.80;;;20.30;99.90;;;;;;5008005;28;20423;-72
2022/07/06 04:45:57;;;;;;;6.15;2.13;;;20.40;99.90;;;;;;5006800;28;20044;-72
2022/07/06 04:48:23;;;;;;;4.70;2.00;;;20.30;99.90;;;;;;5007687;28;20026;-73
2022/07/06 04:50:48;;;;;;;3.40;1.45;;;20.30;99.90;;;;;;5005528;28;20092;-73
2022/07/06 04:53:14;;;;;;;4.63;1.50;;;20.10;99.90;;;;;;5006960;28;20030;-73
2022/07/06 04:55:40;;;;;;;3.25;1.73;;;20.10;99.90;;;;;;5006994;28;20029;-73
2022/07/06 04:58:05;;;;;;;3.47;1.88;;;20.20;99.90;;;;;;5007935;28;20037;-73
2022/07/06 05:00:31;;;;;;;4.55;1.55;;;20.30;99.90;;;;;;5004896;28;20026;-72
2022/07/06 05:02:57;;;;;;;6.13;2.78;;;20.20;99.90;;;;;;5005446;28;20129;-72
2022/07/06 05:05:23;;;;;;;2.22;1.40;;;20.00;99.90;;;;;;5002724;28;20072;-73
2022/07/06 05:07:48;;;;;;;3.47;1.70;;;19.90;99.90;;;;;;5005298;28;20086;-73
2022/07/06 05:10:14;;;;;;;5.10;1.77;;;19.80;99.90;;;;;;5004325;28;20038;-73
2022/07/06 05:12:40;;;;;;;3.33;1.38;;;19.70;99.90;;;;;;5006725;28;20065;-73
2022/07/06 05:15:07;;;;;;;3.33;1.77;;;19.80;99.90;;;;;;5005920;28;20040;-73
2022/07/06 05:17:32;;;;;;;3.47;1.60;;;20.00;99.90;;;;;;5006916;28;20117;-73
2022/07/06 05:19:58;;;;;;;4.82;1.88;;;20.10;99.90;;;;;;5004918;28;20479;-73
2022/07/06 05:22:24;;;;;;;2.70;1.27;;;20.10;99.90;;;;;;5006492;28;20053;-73
2022/07/06 05:24:51;;;;;;;6.60;1.38;;;20.00;99.90;;;;;;4999341;28;20053;-73
2022/07/06 05:27:16;;;;;;;5.05;2.20;;;20.10;99.90;;;;;;5005612;28;20510;-73
2022/07/06 05:29:42;;;;;;;5.55;1.98;;;20.00;99.90;;;;;;5007669;28;20030;-75
2022/07/06 05:32:08;;;;;;;2.67;1.70;;;20.00;99.90;;;;;;5005240;28;20120;-74
2022/07/06 05:34:35;;;;;;;3.88;1.45;;;20.10;99.90;;;;;;5006609;28;20502;-74
2022/07/06 05:37:01;;;;;;;4.38;1.63;;;20.20;99.90;;;;;;5006881;28;20033;-74
2022/07/06 05:39:26;;;;;;;4.15;2.20;;;20.30;99.90;;;;;;5007166;28;20068;-74
2022/07/06 05:41:52;;;;;;;3.60;1.52;;;20.30;99.90;;;;;;5007068;28;20188;-73
2022/07/06 05:44:18;;;;;;;4.13;1.88;;;20.40;99.90;;;;;;5006839;28;20566;-74
2022/07/06 05:46:43;;;;;;;3.60;1.80;;;20.50;99.90;;;;;;5007062;28;20512;-74
2022/07/06 05:51:53;;;;;;;;;;;20.50;99.90;;;;;;5007620;28;20125;-74
2022/07/06 05:54:19;;;;;;;5.18;1.70;;;20.50;99.90;;;;;;5004845;28;20612;-74
2022/07/06 05:56:44;;;;;;;5.25;1.90;;;20.50;99.90;;;;;;5006119;28;20388;-74
2022/07/06 05:59:10;;;;;;;3.58;1.48;;;20.50;99.90;;;;;;5006617;28;20061;-74
2022/07/06 06:01:36;;;;;;;3.97;1.52;;;20.40;99.90;;;;;;5006839;28;20073;-73
2022/07/06 06:04:02;;;;;;;4.32;1.60;;;20.50;99.90;;;;;;5003933;28;20037;-74
2022/07/06 06:06:27;;;;;;;3.38;1.73;;;20.60;99.90;;;;;;5003205;28;20139;-74
2022/07/06 06:08:53;;;;;;;2.92;1.50;;;20.60;99.90;;;;;;5006651;28;20052;-74
2022/07/06 06:11:19;;;;;;;2.65;1.50;;;20.70;99.90;;;;;;5006682;28;20030;-74
2022/07/06 06:13:45;;;;;;;4.55;1.77;;;20.70;99.90;;;;;;5006593;28;20033;-74
2022/07/06 06:16:10;;;;;;;4.78;1.70;;;20.80;99.90;;;;;;5006669;28;20034;-74
2022/07/06 06:18:36;;;;;;;5.10;1.77;;;20.80;99.90;;;;;;5006524;28;20460;-74
2022/07/06 06:21:02;;;;;;;4.47;1.52;;;20.90;99.90;;;;;;5006758;28;20471;-74
2022/07/06 06:23:27;;;;;;;5.50;2.05;;;20.90;99.90;;;;;;5002539;28;20369;-74
2022/07/06 06:25:53;;;;;;;4.22;2.10;;;21.00;99.90;;;;;;5006017;28;20034;-74
2022/07/06 06:28:19;;;;;;;5.70;1.73;;;21.00;99.90;;;;;;5006024;28;20029;-74
2022/07/06 06:30:45;;;;;;;4.20;2.03;;;21.10;99.90;;;;;;5005518;28;20526;-75
2022/07/06 06:33:16;;;;;;;3.30;1.92;;;21.20;99.90;;;;;;5006003;28;20141;-76
2022/07/06 06:35:51;;;;;;;4.43;1.95;;;21.30;99.90;;;;;;5005162;28;20105;-74
2022/07/06 06:38:18;;;;;;;2.95;1.75;;;21.40;99.90;;;;;;5005553;28;20038;-74
2022/07/06 06:40:43;;;;;;;7.35;2.13;;;21.40;99.90;;;;;;5007694;28;20037;-73
2022/07/06 06:43:09;;;;;;;3.95;2.15;;;21.50;99.90;;;;;;5009243;28;20033;-73
2022/07/06 06:45:35;;;;;;;5.18;1.55;;;21.60;99.90;;;;;;5002308;28;20076;-75
2022/07/06 06:48:01;;;;;;;7.65;1.77;;;21.60;99.70;;;;;;5005443;28;20156;-75
2022/07/06 06:50:27;;;;;;;4.43;1.60;;;21.80;99.40;;;;;;5004682;28;20046;-75
2022/07/06 06:52:53;;;;;;;3.53;2.00;;;21.80;99.20;;;;;;5005322;28;20471;-75
2022/07/06 06:55:19;;;;;;;4.18;1.70;;;22.00;99.10;;;;;;5004482;28;20065;-75
2022/07/06 06:57:45;;;;;;;3.97;2.30;;;22.20;98.60;;;;;;5005372;28;20041;-75
2022/07/06 07:00:12;;;;;;;5.60;1.90;;;22.30;99.10;;;;;;5005537;28;20036;-72
2022/07/06 07:02:38;;;;;;;3.42;1.80;;;22.40;98.40;;;;;;5002971;28;20041;-75
2022/07/06 07:05:05;;;;;;;4.40;2.08;;;22.60;98.00;;;;;;5001054;28;20030;-75
2022/07/06 07:07:31;;;;;;;3.67;1.90;;;22.80;98.00;;;;;;5004278;28;20894;-75
2022/07/06 07:09:57;;;;;;;2.65;1.40;;;23.10;97.20;;;;;;5004913;28;20524;-75
2022/07/06 07:12:22;;;;;;;3.13;1.70;;;23.20;96.80;;;;;;5004514;28;20056;-75
2022/07/06 07:14:48;;;;;;;3.45;1.92;;;23.30;96.80;;;;;;5005083;28;20028;-73
2022/07/06 07:17:14;;;;;;;4.25;2.25;;;23.50;96.90;;;;;;5004333;28;20037;-75
2022/07/06 07:19:40;;;;;;;3.72;2.30;;;23.90;96.20;;;;;;5004757;28;20053;-72
2022/07/06 07:22:06;;;;;;;3.22;1.60;;;24.10;96.00;;;;;;5005349;28;20046;-73
2022/07/06 07:24:32;;;;;;;2.83;1.67;;;24.00;94.90;;;;;;5005472;28;20033;-73
2022/07/06 07:26:57;;;;;;;4.47;2.17;;;24.20;94.50;;;;;;5004876;28;20080;-74
2022/07/06 07:29:23;;;;;;;2.45;1.50;;;24.70;94.60;;;;;;5004682;28;20069;-76
2022/07/06 07:31:49;;;;;;;3.47;1.75;;;24.60;91.70;;;;;;5003021;28;20064;-74
2022/07/06 07:34:15;;;;;;;5.85;1.63;;;24.40;92.10;;;;;;5003878;28;20066;-75
2022/07/06 07:36:41;;;;;;;2.55;1.52;;;24.50;92.80;;;;;;5004249;28;20033;-74
2022/07/06 07:39:07;;;;;;;2.50;1.27;;;24.40;92.50;;;;;;5004904;28;20436;-75
2022/07/06 07:41:33;;;;;;;2.67;1.27;;;24.30;93.00;;;;;;5005448;28;20037;-73
2022/07/06 07:43:58;;;;;;;3.42;1.63;;;24.10;92.20;;;;;;5003017;28;20433;-73
2022/07/06 07:46:24;;;;;;;2.90;1.45;;;24.00;92.80;;;;;;5005072;28;20077;-74
2022/07/06 07:48:49;;;;;;;2.58;1.60;;;24.00;93.40;;;;;;5004506;28;20030;-73
2022/07/06 07:51:15;;;;;;;2.88;1.30;;;24.00;93.20;;;;;;5004582;28;20042;-73
2022/07/06 07:53:41;;;;;;;4.72;1.40;;;24.00;91.70;;;;;;5004454;28;20603;-73
2022/07/06 07:56:07;;;;;;;4.07;2.08;;;24.20;91.60;;;;;;5004456;28;20034;-73
2022/07/06 07:58:32;;;;;;;3.58;1.50;;;25.00;92.20;;;;;;5003057;28;20034;-73
2022/07/06 08:00:58;;;;;;;2.80;1.35;;;26.10;91.40;;;;;;5004351;28;20195;-73
2022/07/06 08:03:24;;;;;;;2.83;1.20;;;26.80;89.20;;;;;;5004657;28;20092;-73
2022/07/06 08:05:50;;;;;;;6.90;1.27;;;27.20;89.00;;;;;;5002098;28;20030;-73
2022/07/06 08:08:16;;;;;;;2.85;1.67;;;27.30;87.00;;;;;;4999281;28;20026;-73
2022/07/06 08:10:41;;;;;;;4.20;1.20;;;27.60;87.60;;;;;;5003442;28;20041;-73
2022/07/06 08:13:07;;;;;;;2.03;1.20;;;27.00;84.90;;;;;;5003034;28;20514;-73
2022/07/06 08:15:34;;;;;;;3.10;1.30;;;27.00;85.70;;;;;;5003953;28;20057;-73
2022/07/06 08:18:00;;;;;;;4.68;1.50;;;27.40;84.90;;;;;;5004760;28;20120;-73
2022/07/06 08:20:26;;;;;;;3.83;1.15;;;27.20;85.10;;;;;;5004211;28;20113;-73
2022/07/06 08:22:51;;;;;;;4.22;1.10;;;27.20;83.90;;;;;;4986825;28;20558;-73
2022/07/06 08:25:17;;;;;;;1.85;1.20;;;27.10;83.00;;;;;;5004193;28;20030;-73
2022/07/06 08:27:43;;;;;;;3.63;1.65;;;27.20;85.20;;;;;;5002679;28;20097;-73
2022/07/06 08:30:10;;;;;;;2.40;1.15;;;27.20;85.60;;;;;;5001804;28;20042;-73
2022/07/06 08:32:43;;;;;;;7.97;1.45;;;27.20;84.60;;;;;;5002500;28;20484;-73
2022/07/06 08:35:10;;;;;;;3.75;1.42;;;26.70;83.60;;;;;;5004109;28;20092;-73
2022/07/06 08:37:35;;;;;;;3.03;1.35;;;26.80;83.50;;;;;;5002774;28;20030;-74
2022/07/06 08:40:02;;;;;;;3.67;1.27;;;27.20;83.80;;;;;;5003714;28;20041;-73
2022/07/06 08:42:31;;;;;;;4.70;1.67;;;27.20;84.30;;;;;;5003428;28;20038;-74
2022/07/06 08:45:01;;;;;;;2.13;1.20;;;27.20;84.60;;;;;;5001061;28;20041;-74
2022/07/06 08:47:27;;;;;;;3.65;1.65;;;27.40;85.20;;;;;;5003766;28;20034;-74
2022/07/06 08:49:54;;;;;;;2.85;1.55;;;27.60;83.30;;;;;;5003980;28;20049;-73
2022/07/06 08:52:22;;;;;;;3.88;1.45;;;27.80;82.50;;;;;;5003427;28;20034;-74
2022/07/06 08:54:48;;;;;;;3.95;1.35;;;27.80;82.70;;;;;;5004136;28;20022;-74
2022/07/06 08:57:14;;;;;;;2.22;1.25;;;28.00;84.50;;;;;;5003758;28;20080;-74
2022/07/06 08:59:40;;;;;;;2.28;1.20;;;27.60;82.70;;;;;;5003895;28;20045;-73
2022/07/06 09:02:06;;;;;;;2.15;1.15;;;27.10;83.90;;;;;;5003939;28;20530;-74
2022/07/06 09:04:36;;;;;;;4.03;1.10;;;27.60;84.60;;;;;;5001616;28;20061;-74
2022/07/06 09:07:02;;;;;;;2.85;1.00;;;27.70;80.60;;;;;;5003588;28;20037;-74
2022/07/06 09:09:32;;;;;;;2.95;1.55;;;27.80;81.10;;;;;;5002693;28;20652;-73
2022/07/06 09:11:58;;;;;;;3.67;1.33;;;28.10;80.60;;;;;;5002674;28;20052;-74
2022/07/06 09:14:24;;;;;;;3.13;1.58;;;28.10;80.60;;;;;;5003503;28;20026;-74
2022/07/06 09:17:03;;;;;;;2.20;1.17;;;28.10;80.10;;;;;;5003607;28;20026;-74
2022/07/06 09:19:30;;;;;;;2.50;1.40;;;28.10;79.30;;;;;;5004872;28;20062;-73
2022/07/06 09:21:56;;;;;;;3.97;1.48;;;28.40;79.10;;;;;;5007261;28;20054;-74
2022/07/06 09:24:22;;;;;;;2.13;1.08;;;28.30;77.60;;;;;;5006874;28;20491;-74
2022/07/06 09:26:48;;;;;;;2.15;1.30;;;28.60;78.60;;;;;;5007046;28;20113;-74
2022/07/06 09:29:14;;;;;;;3.58;1.20;;;28.30;79.00;;;;;;5006584;28;20038;-74
2022/07/06 09:31:40;;;;;;;2.47;1.00;;;28.40;78.70;;;;;;5007366;28;20377;-74
2022/07/06 09:34:10;;;;;;;2.25;1.33;;;28.30;78.60;;;;;;5006736;28;20029;-74
2022/07/06 09:36:48;;;;;;;4.50;1.23;;;28.50;78.30;;;;;;5007184;28;20025;-74
2022/07/06 09:39:28;;;;;;;2.33;1.08;;;28.90;78.30;;;;;;5006451;28;20045;-74
2022/07/06 09:41:59;;;;;;;3.83;1.58;;;29.00;78.30;;;;;;5007036;28;20026;-74
2022/07/06 09:44:25;;;;;;;4.57;1.45;;;28.80;78.30;;;;;;5006405;28;20062;-74
2022/07/06 09:46:52;;;;;;;3.50;1.20;;;28.90;78.30;;;;;;5006807;28;20030;-74
2022/07/06 09:49:22;;;;;;;2.72;1.27;;;28.90;78.50;;;;;;5003600;28;20365;-74
2022/07/06 09:51:49;;;;;;;2.22;1.05;;;29.60;76.90;;;;;;5005048;28;20026;-74
2022/07/06 09:54:16;;;;;;;2.60;1.20;;;29.50;77.10;;;;;;4988508;28;20506;-74
2022/07/06 09:56:47;;;;;;;2.60;1.48;;;29.90;78.40;;;;;;5006370;28;20033;-74
2022/07/06 09:59:15;;;;;;;5.45;1.80;;;30.10;77.60;;;;;;5006097;28;20049;-74
2022/07/06 10:01:42;;;;;;;3.63;1.58;;;30.20;78.30;;;;;;5006935;28;20690;-74
2022/07/06 10:04:13;;;;;;;5.40;1.60;;;30.10;76.80;;;;;;5005125;28;20040;-74
2022/07/06 10:06:40;;;;;;;2.45;1.05;;;30.10;78.90;;;;;;5004951;28;20030;-74
2022/07/06 10:09:08;;;;;;;2.88;1.15;;;30.00;76.70;;;;;;5005645;28;20033;-74
2022/07/06 10:11:49;;;;;;;4.38;1.10;;;30.10;76.60;;;;;;5005544;28;20100;-74
2022/07/06 10:14:18;;;;;;;2.15;0.98;;;30.20;74.60;;;;;;5005761;28;20053;-74
2022/07/06 10:16:45;;;;;;;2.55;1.10;;;30.10;77.00;;;;;;5006108;28;20096;-74
2022/07/06 10:19:13;;;;;;;2.08;1.20;;;30.40;77.30;;;;;;5004116;28;20480;-74
2022/07/06 10:21:40;;;;;;;3.72;1.10;;;30.50;76.50;;;;;;5005997;28;20038;-74
2022/07/06 10:24:07;;;;;;;2.13;1.13;;;30.60;76.50;;;;;;5005019;28;20043;-74
2022/07/06 10:26:35;;;;;;;4.15;1.20;;;30.30;73.70;;;;;;5006763;28;20047;-74
2022/07/06 10:29:03;;;;;;;2.38;1.15;;;30.70;74.30;;;;;;5004003;28;20038;-73
2022/07/06 10:31:31;;;;;;;2.38;1.10;;;30.70;73.10;;;;;;5006187;28;20029;-74
2022/07/06 10:33:59;;;;;;;2.58;1.35;;;30.50;73.50;;;;;;4987556;28;20034;-74
2022/07/06 10:36:26;;;;;;;2.08;1.30;;;30.90;75.90;;;;;;5005890;28;20068;-74
2022/07/06 10:38:52;;;;;;;2.38;1.17;;;30.40;73.40;;;;;;5005302;28;20033;-74
2022/07/06 10:41:30;;;;;;;1.17;0.80;;;30.90;74.50;;;;;;5005532;28;20065;-74
2022/07/06 10:43:57;;;;;;;2.13;1.00;;;30.90;72.80;;;;;;5005154;28;20042;-74
2022/07/06 10:46:27;;;;;;;2.40;1.10;;;30.80;72.90;;;;;;5006052;28;20030;-74
2022/07/06 10:48:54;;;;;;;2.25;0.77;;;30.70;72.10;;;;;;5006123;28;20469;-74
2022/07/06 10:51:27;;;;;;;2.92;1.27;;;30.70;72.20;;;;;;5007525;28;20048;-74
2022/07/06 10:54:04;;;;;;;2.53;1.02;;;30.90;70.00;;;;;;5007086;28;20208;-74
2022/07/06 10:56:38;;;;;;;4.13;1.38;;;31.20;71.60;;;;;;5008583;28;20030;-73
2022/07/06 10:59:10;;;;;;;4.35;0.98;;;31.40;71.30;;;;;;5008450;28;20030;-74
2022/07/06 11:01:36;;;;;;;2.45;1.20;;;31.60;71.10;;;;;;5005486;28;20029;-74
2022/07/06 11:04:02;;;;;;;3.22;1.08;;;31.60;71.10;;;;;;5004737;28;20112;-74
2022/07/06 11:06:32;;;;;;;2.75;1.08;;;31.60;70.70;;;;;;5003807;28;20061;-74
2022/07/06 11:09:18;;;;;;;5.20;1.35;;;31.60;69.30;;;;;;5007935;28;20512;-74
2022/07/06 11:11:47;;;;;;;5.50;0.90;;;31.90;71.70;;;;;;5004672;28;20419;-74
2022/07/06 11:14:18;;;;;;;2.47;1.13;;;31.70;69.90;;;;;;5005102;28;20022;-74
2022/07/06 11:16:49;;;;;;;3.47;0.77;;;31.70;68.70;;;;;;5005081;28;20033;-74
2022/07/06 11:19:26;;;;;;;1.75;0.80;;;31.60;69.40;;;;;;5003957;28;20353;-75
2022/07/06 11:21:52;;;;;;;3.33;1.00;;;31.00;68.50;;;;;;5004847;28;20073;-74
2022/07/06 11:24:26;;;;;;;2.05;1.00;;;31.20;70.20;;;;;;5004440;28;20029;-75
2022/07/06 11:26:53;;;;;;;1.85;0.80;;;31.10;69.50;;;;;;4998943;28;20033;-74
2022/07/06 11:29:21;;;;;;;3.55;0.80;;;31.30;69.00;;;;;;5003192;28;20063;-74
2022/07/06 11:31:49;;;;;;;1.83;1.10;;;31.30;69.90;;;;;;5002962;28;20130;-75
2022/07/06 11:34:29;;;;;;;1.10;0.65;;;31.30;68.70;;;;;;5004148;28;20429;-76
2022/07/06 11:37:00;;;;;;;2.42;1.00;;;31.60;68.90;;;;;;5005098;28;20065;-75
2022/07/06 11:39:27;;;;;;;2.22;0.93;;;31.40;67.90;;;;;;5005010;28;20026;-75
2022/07/06 11:41:55;;;;;;;1.52;0.65;;;31.60;70.00;;;;;;5004576;28;20837;-75
2022/07/06 11:44:20;;;;;;;3.08;1.20;;;31.20;67.40;;;;;;5003709;28;20045;-74
2022/07/06 11:46:46;;;;;;;1.65;0.90;;;31.80;68.80;;;;;;5006167;28;20026;-75
2022/07/06 11:49:12;;;;;;;2.53;0.80;;;32.00;69.80;;;;;;5007588;28;20049;-74
2022/07/06 11:51:40;;;;;;;1.92;1.00;;;32.10;69.40;;;;;;5007695;28;20100;-74
2022/07/06 11:54:12;;;;;;;1.55;0.90;;;32.10;67.30;;;;;;5007485;28;20088;-75
2022/07/06 11:56:49;;;;;;;3.27;1.00;;;32.10;69.60;;;;;;5007089;28;20034;-75
2022/07/06 11:59:16;;;;;;;2.03;1.08;;;32.10;69.90;;;;;;5006173;28;20038;-75
2022/07/06 12:01:44;;;;;;;2.30;0.70;;;32.00;69.00;;;;;;5007936;28;20060;-74
2022/07/06 12:04:10;;;;;;;1.48;0.77;;;32.40;70.40;;;;;;5006299;28;20065;-75
2022/07/06 12:06:36;;;;;;;3.60;0.90;;;32.20;68.50;;;;;;5005588;28;20034;-75
2022/07/06 12:09:04;;;;;;;2.38;0.88;;;32.50;69.20;;;;;;5006309;28;20045;-75
2022/07/06 12:11:30;;;;;;;1.23;0.70;;;32.20;67.20;;;;;;5025601;28;20553;-74
2022/07/06 12:14:17;;;;;;;2.22;1.00;;;32.30;69.60;;;;;;5009210;28;20042;-75
2022/07/06 12:16:44;;;;;;;2.67;1.30;;;32.20;67.40;;;;;;5007319;28;20135;-74
2022/07/06 12:19:11;;;;;;;2.83;1.30;;;32.10;67.40;;;;;;5007304;28;20037;-74
2022/07/06 12:21:46;;;;;;;3.83;1.15;;;32.20;68.50;;;;;;5007047;28;20030;-75
2022/07/06 12:24:19;;;;;;;2.17;1.00;;;32.60;68.60;;;;;;5006970;28;20030;-74
2022/07/06 12:26:45;;;;;;;3.25;1.00;;;32.70;67.70;;;;;;5006864;28;20026;-76
2022/07/06 12:29:13;;;;;;;1.85;1.10;;;32.70;67.90;;;;;;5004909;28;20025;-75
2022/07/06 12:31:41;;;;;;;1.63;0.65;;;32.40;67.90;;;;;;5007434;28;20030;-75
2022/07/06 12:34:14;;;;;;;6.43;1.42;;;32.40;68.20;;;;;;5004111;28;20041;-75
2022/07/06 12:36:52;;;;;;;5.25;1.50;;;32.60;68.90;;;;;;5006684;28;20034;-75
2022/07/06 12:39:23;;;;;;;2.95;1.10;;;32.30;68.80;;;;;;5001756;28;20480;-75
2022/07/06 12:41:50;;;;;;;2.42;1.02;;;32.40;70.30;;;;;;5006198;28;20080;-76
2022/07/06 12:44:22;;;;;;;11.80;1.95;;;32.60;69.80;;;;;;5005973;28;20492;-76
2022/07/06 12:46:48;;;;;;;4.63;1.35;;;32.90;69.30;;;;;;5006867;28;20065;-76
2022/07/06 12:49:20;;;;;;;2.30;1.23;;;33.00;69.30;;;;;;5004489;28;20034;-75
2022/07/06 12:52:15;;;;;;;8.23;1.02;;;32.90;67.90;;;;;;5007791;28;20022;-75